Time;durP1;ratioP1;P1;durP2;ratioP2;P2;SDS_P1;SDS_P2;PMS_P1;PMS_P2;Temp;Humidity;BMP_temperature;BMP_pressure;BME280_temperature;BME280_humidity;BME280_pressure;Samples;Min_cycle;Max_cycle;Signal;HPM_P1;HPM_P2
2022/12/24 00:01:24;;;;;;;9.73;1.42;;;;;;;10.53;100.00;98256.47;5023044;28;20071;-71
2022/12/24 00:03:49;;;;;;;7.50;1.58;;;;;;;10.46;100.00;98261.91;5012972;28;20025;-71
2022/12/24 00:06:18;;;;;;;12.68;2.05;;;;;;;10.43;100.00;98253.41;5031028;28;20029;-71
2022/12/24 00:08:44;;;;;;;9.73;1.15;;;;;;;10.30;100.00;98235.38;5041816;28;20454;-73
2022/12/24 00:11:09;;;;;;;9.80;1.23;;;;;;;10.40;100.00;98243.00;5027874;28;20034;-72
2022/12/24 00:13:34;;;;;;;11.70;1.33;;;;;;;10.36;100.00;98236.38;5029201;28;20119;-72
2022/12/24 00:16:00;;;;;;;6.15;1.50;;;;;;;10.35;100.00;98246.38;5052415;22;20122;-75
2022/12/24 00:18:26;;;;;;;13.10;1.70;;;;;;;10.26;100.00;98263.84;5052206;28;20033;-75
2022/12/24 00:20:52;;;;;;;9.20;1.67;;;;;;;10.23;100.00;98273.22;5045620;28;20041;-75
2022/12/24 00:23:18;;;;;;;13.30;1.33;;;;;;;10.12;100.00;98262.25;5044740;28;20829;-77
2022/12/24 00:25:43;;;;;;;6.57;1.20;;;;;;;10.14;100.00;98276.38;5058317;28;20022;-77
2022/12/24 00:28:09;;;;;;;9.27;1.35;;;;;;;10.05;100.00;98275.78;5052311;28;20025;-77
2022/12/24 00:30:37;;;;;;;8.32;1.88;;;;;;;10.00;100.00;98262.91;5037168;28;20021;-77
2022/12/24 00:33:02;;;;;;;8.00;1.30;;;;;;;9.98;100.00;98261.44;5036404;28;20029;-77
2022/12/24 00:35:28;;;;;;;17.33;1.75;;;;;;;9.95;100.00;98256.47;5049574;28;20030;-77
2022/12/24 00:37:53;;;;;;;10.43;1.83;;;;;;;9.93;100.00;98272.91;5029403;28;20034;-77
2022/12/24 00:40:18;;;;;;;6.03;1.30;;;;;;;9.85;100.00;98268.56;5037139;28;20029;-76
2022/12/24 00:42:44;;;;;;;10.55;1.40;;;;;;;9.83;100.00;98273.34;5041835;28;20088;-77
2022/12/24 00:45:10;;;;;;;7.78;1.23;;;;;;;9.81;100.00;98271.91;5043686;28;20405;-77
2022/12/24 00:47:36;;;;;;;5.70;1.40;;;;;;;9.89;100.00;98266.25;5036302;28;20029;-77
2022/12/24 00:50:01;;;;;;;7.68;1.30;;;;;;;9.92;100.00;98278.53;5046722;28;20502;-77
2022/12/24 00:52:27;;;;;;;11.65;1.50;;;;;;;10.00;100.00;98286.41;5027954;28;20049;-76
2022/12/24 00:54:52;;;;;;;7.57;1.60;;;;;;;10.02;100.00;98287.03;5030690;28;20025;-77
2022/12/24 00:57:18;;;;;;;9.43;1.30;;;;;;;10.00;100.00;98283.69;5021911;28;20036;-76
2022/12/24 00:59:43;;;;;;;7.10;1.23;;;;;;;10.14;100.00;98298.84;5049670;28;20026;-76
2022/12/24 01:02:08;;;;;;;8.95;1.42;;;;;;;10.06;100.00;98293.63;5050104;28;20141;-77
2022/12/24 01:07:18;;;;;;;9.82;1.77;;;;;;;10.05;100.00;98308.22;5030132;28;20036;-77
2022/12/24 01:09:43;;;;;;;12.23;1.33;;;;;;;9.94;100.00;98322.38;5028815;28;20022;-77
2022/12/24 01:12:08;;;;;;;6.05;1.27;;;;;;;9.80;100.00;98319.72;5030706;28;20148;-77
2022/12/24 01:14:33;;;;;;;11.77;1.83;;;;;;;9.83;100.00;98323.88;5046059;28;20469;-77
2022/12/24 01:16:59;;;;;;;6.05;1.30;;;;;;;9.67;100.00;98317.03;5021699;28;20033;-78
2022/12/24 01:19:24;;;;;;;2.63;1.00;;;;;;;9.60;100.00;98321.59;5047995;28;20026;-77
2022/12/24 01:21:49;;;;;;;8.52;1.42;;;;;;;9.63;100.00;98353.59;5029318;28;20030;-76
2022/12/24 01:24:15;;;;;;;5.03;1.25;;;;;;;9.69;100.00;98365.41;5035424;28;20128;-77
2022/12/24 01:26:41;;;;;;;6.35;1.90;;;;;;;9.53;100.00;98364.78;5025580;28;20018;-77
2022/12/24 01:29:07;;;;;;;5.78;1.27;;;;;;;9.48;100.00;98369.16;5033187;28;20057;-78
2022/12/24 01:31:32;;;;;;;9.68;1.35;;;;;;;9.48;100.00;98382.66;5023854;28;20064;-77
2022/12/24 01:33:57;;;;;;;10.82;1.38;;;;;;;9.46;100.00;98357.72;5023487;28;20092;-77
2022/12/24 01:36:22;;;;;;;5.15;0.70;;;;;;;9.43;100.00;98376.03;5032340;28;20020;-77
2022/12/24 01:38:48;;;;;;;7.97;1.15;;;;;;;9.36;100.00;98379.75;5031667;28;20402;-76
2022/12/24 01:44:30;;;;;;;3.88;0.90;;;;;;;9.28;100.00;98386.19;5031075;28;20040;-76
2022/12/24 01:47:05;;;;;;;8.13;1.63;;;;;;;9.35;100.00;98391.56;5020319;28;20040;-76
2022/12/24 01:49:30;;;;;;;6.68;1.05;;;;;;;9.30;100.00;98394.06;5031646;28;20021;-75
2022/12/24 01:52:07;;;;;;;8.43;0.98;;;;;;;9.23;100.00;98394.06;5040181;28;20132;-76
2022/12/24 01:54:38;;;;;;;8.90;1.60;;;;;;;9.19;100.00;98398.19;5047350;28;20021;-77
2022/12/24 01:57:13;;;;;;;6.15;1.15;;;;;;;9.08;100.00;98425.78;5039179;28;20029;-76
2022/12/24 01:59:42;;;;;;;9.98;1.40;;;;;;;9.05;100.00;98418.09;5022773;28;20090;-76
2022/12/24 02:02:09;;;;;;;8.02;1.40;;;;;;;9.03;100.00;98429.06;5019403;28;20049;-77
2022/12/24 02:04:42;;;;;;;11.60;1.33;;;;;;;9.02;100.00;98440.09;5022632;28;20033;-77
2022/12/24 02:07:07;;;;;;;13.32;2.33;;;;;;;9.05;100.00;98428.88;5042387;28;20034;-76
2022/12/24 02:09:34;;;;;;;6.35;1.70;;;;;;;9.03;100.00;98439.03;5030905;28;20112;-76
2022/12/24 02:12:00;;;;;;;6.30;1.35;;;;;;;9.00;100.00;98416.81;5018281;28;20076;-76
2022/12/24 02:14:28;;;;;;;6.35;1.40;;;;;;;9.07;100.00;98440.31;5018861;28;20029;-76
2022/12/24 02:17:10;;;;;;;12.38;2.30;;;;;;;8.97;100.00;98438.81;5038139;28;20116;-76
2022/12/24 02:20:09;;;;;;;10.05;1.50;;;;;;;9.10;100.00;98475.00;5021408;28;20075;-76
2022/12/24 02:23:17;;;;;;;8.55;1.50;;;;;;;9.13;100.00;98477.28;5025709;28;20022;-76
2022/12/24 02:25:48;;;;;;;13.30;1.83;;;;;;;9.21;100.00;98483.31;5025648;28;20026;-76
2022/12/24 02:28:35;;;;;;;7.30;1.50;;;;;;;9.18;100.00;98488.31;5041619;28;20029;-76
2022/12/24 02:31:13;;;;;;;10.82;1.75;;;;;;;9.15;100.00;98489.53;5022189;28;20514;-76
2022/12/24 02:33:46;;;;;;;16.45;2.20;;;;;;;9.24;100.00;98479.38;5016997;28;20026;-75
2022/12/24 02:36:33;;;;;;;11.82;1.88;;;;;;;9.32;100.00;98483.78;5025912;28;20087;-77
2022/12/24 02:39:03;;;;;;;15.00;1.80;;;;;;;9.28;100.00;98479.84;5027250;28;20039;-76
2022/12/24 02:44:27;;;;;;;8.70;1.55;;;;;;;9.09;100.00;98463.38;5019460;28;20068;-77
2022/12/24 02:46:55;;;;;;;11.15;1.92;;;;;;;9.08;100.00;98463.56;5045554;28;20048;-76
2022/12/24 02:49:20;;;;;;;17.17;1.60;;;;;;;9.08;100.00;98471.66;5028324;28;20475;-76
2022/12/24 02:51:46;;;;;;;16.33;1.67;;;;;;;8.99;100.00;98477.22;5032201;28;20036;-76
2022/12/24 02:54:13;;;;;;;8.70;1.98;;;;;;;8.88;100.00;98471.56;5034471;28;20113;-76
2022/12/24 02:56:51;;;;;;;12.45;1.70;;;;;;;8.96;100.00;98491.13;5020673;28;20049;-76
2022/12/24 02:59:46;;;;;;;12.43;1.48;;;;;;;8.88;100.00;98494.00;5029321;28;20043;-76
2022/12/24 03:02:29;;;;;;;12.20;2.03;;;;;;;8.79;100.00;98495.19;5021853;28;20060;-77
2022/12/24 03:05:12;;;;;;;8.88;1.52;;;;;;;8.73;100.00;98502.22;5023660;28;20033;-76
2022/12/24 03:07:43;;;;;;;6.28;1.45;;;;;;;8.75;100.00;98508.25;5014514;28;20026;-76
2022/12/24 03:10:20;;;;;;;10.65;2.10;;;;;;;8.83;100.00;98517.19;5030092;28;20155;-76
2022/12/24 03:12:50;;;;;;;16.08;2.38;;;;;;;8.86;100.00;98519.50;5019588;28;20077;-76
2022/12/24 03:15:19;;;;;;;10.90;1.52;;;;;;;8.84;100.00;98508.91;5026334;28;20025;-76
2022/12/24 03:17:47;;;;;;;16.00;2.58;;;;;;;8.91;100.00;98504.38;5029292;28;20547;-77
2022/12/24 03:20:18;;;;;;;12.55;1.80;;;;;;;8.86;100.00;98511.41;5059813;28;20108;-77
2022/12/24 03:22:44;;;;;;;8.05;1.60;;;;;;;8.86;100.00;98530.31;5039332;28;20025;-76
2022/12/24 03:25:09;;;;;;;10.25;2.30;;;;;;;8.85;100.00;98534.84;5028186;28;20022;-76
2022/12/24 03:27:37;;;;;;;10.95;1.67;;;;;;;8.92;100.00;98534.88;5011983;28;20064;-76
2022/12/24 03:30:04;;;;;;;11.35;1.38;;;;;;;8.85;100.00;98510.56;5039223;28;20033;-76
2022/12/24 03:32:31;;;;;;;15.43;1.50;;;;;;;8.95;100.00;98516.44;5041111;28;20025;-76
2022/12/24 03:34:57;;;;;;;17.02;1.60;;;;;;;8.81;100.00;98508.47;5028113;28;20033;-76
2022/12/24 03:37:22;;;;;;;13.57;1.60;;;;;;;8.89;100.00;98528.03;5025986;28;20048;-76
2022/12/24 03:39:47;;;;;;;13.32;1.70;;;;;;;8.66;100.00;98508.59;5020202;28;20022;-76
2022/12/24 03:42:13;;;;;;;9.80;1.20;;;;;;;8.79;100.00;98535.66;5021080;28;20021;-77
2022/12/24 03:44:38;;;;;;;14.88;2.75;;;;;;;8.74;100.00;98530.00;5021901;28;20029;-77
2022/12/24 03:47:03;;;;;;;14.82;1.90;;;;;;;8.89;100.00;98544.22;5012155;28;20022;-76
2022/12/24 03:49:29;;;;;;;14.05;2.13;;;;;;;8.85;100.00;98532.16;5033095;28;20379;-76
2022/12/24 03:51:54;;;;;;;17.77;2.30;;;;;;;8.82;100.00;98532.53;5022455;28;20026;-76
2022/12/24 03:54:19;;;;;;;11.18;1.83;;;;;;;8.88;100.00;98539.88;5039135;28;20045;-75
2022/12/24 03:56:45;;;;;;;13.00;1.70;;;;;;;8.85;100.00;98528.63;5031032;28;20013;-76
2022/12/24 03:59:10;;;;;;;14.00;2.25;;;;;;;8.93;100.00;98537.41;5031667;28;20053;-76
2022/12/24 04:01:35;;;;;;;19.75;2.28;;;;;;;8.83;100.00;98523.44;5026201;28;20029;-76
2022/12/24 04:04:00;;;;;;;11.48;1.45;;;;;;;8.81;100.00;98513.88;5026726;28;20539;-76
2022/12/24 04:06:26;;;;;;;17.95;2.85;;;;;;;8.80;100.00;98518.41;5031905;28;20021;-76
2022/12/24 04:08:51;;;;;;;14.57;1.70;;;;;;;8.87;100.00;98529.25;5031267;28;20123;-76
2022/12/24 04:11:17;;;;;;;13.80;2.20;;;;;;;8.77;100.00;98500.75;5033320;28;20030;-77
2022/12/24 04:13:43;;;;;;;21.88;2.05;;;;;;;8.85;100.00;98521.34;5033865;28;20071;-77
2022/12/24 04:16:11;;;;;;;11.93;2.30;;;;;;;8.80;100.00;98523.81;5032631;28;20475;-76
2022/12/24 04:18:38;;;;;;;11.10;1.77;;;;;;;8.85;100.00;98542.09;5048071;28;20418;-76
2022/12/24 04:21:04;;;;;;;10.70;1.75;;;;;;;8.77;100.00;98522.34;5015342;28;20042;-77
2022/12/24 04:23:31;;;;;;;17.88;2.28;;;;;;;8.65;100.00;98504.25;5028403;28;20029;-78
2022/12/24 04:26:05;;;;;;;12.60;2.05;;;;;;;8.84;100.00;98535.06;5041890;28;20425;-78
2022/12/24 04:28:31;;;;;;;16.83;2.50;;;;;;;8.83;100.00;98554.94;5035282;28;20025;-78
2022/12/24 04:31:10;;;;;;;8.23;1.60;;;;;;;8.85;100.00;98553.72;5048302;28;20121;-79
2022/12/24 04:33:36;;;;;;;16.50;2.13;;;;;;;8.85;100.00;98534.00;5032485;28;20025;-78
2022/12/24 04:36:04;;;;;;;15.23;1.90;;;;;;;8.88;100.00;98539.88;5057684;28;20032;-78
2022/12/24 04:38:30;;;;;;;13.38;2.17;;;;;;;8.81;100.00;98536.28;5057708;28;20056;-74
2022/12/24 04:41:04;;;;;;;10.65;1.60;;;;;;;8.95;100.00;98554.19;5055132;28;20018;-74
2022/12/24 04:43:30;;;;;;;11.55;1.85;;;;;;;8.89;100.00;98541.50;5049155;28;20009;-76
2022/12/24 04:45:55;;;;;;;15.30;2.10;;;;;;;8.79;100.00;98551.81;5046477;28;20047;-77
2022/12/24 04:48:21;;;;;;;12.98;2.35;;;;;;;8.45;100.00;98531.91;5056776;28;20151;-76
2022/12/24 04:50:46;;;;;;;16.75;2.15;;;;;;;8.55;100.00;98559.34;5049994;28;20033;-77
2022/12/24 04:53:13;;;;;;;14.63;2.08;;;;;;;8.55;100.00;98580.91;5045773;28;20045;-77
2022/12/24 04:55:43;;;;;;;12.68;1.98;;;;;;;8.43;100.00;98563.59;5048861;28;20043;-77
2022/12/24 04:58:08;;;;;;;15.98;2.33;;;;;;;8.51;100.00;98590.44;5028894;28;20356;-76
2022/12/24 05:00:34;;;;;;;26.98;2.40;;;;;;;8.43;100.00;98593.25;5038462;28;20035;-77
2022/12/24 05:02:59;;;;;;;13.13;2.53;;;;;;;8.41;100.00;98597.16;5022783;28;20021;-77
2022/12/24 05:05:24;;;;;;;20.83;2.83;;;;;;;8.38;100.00;98587.59;5034029;28;20068;-77
2022/12/24 05:07:49;;;;;;;29.30;2.65;;;;;;;8.36;100.00;98592.34;5017913;28;20026;-76
2022/12/24 05:10:15;;;;;;;19.23;2.50;;;;;;;8.25;100.00;98577.53;5028802;28;20029;-76
2022/12/24 05:12:40;;;;;;;15.50;2.42;;;;;;;8.34;100.00;98595.22;5033891;28;20030;-76
2022/12/24 05:15:05;;;;;;;14.13;2.28;;;;;;;8.30;100.00;98577.78;5032929;28;20388;-77
2022/12/24 05:17:31;;;;;;;17.13;2.70;;;;;;;8.25;100.00;98585.63;5032276;28;20033;-76
2022/12/24 05:19:56;;;;;;;21.70;2.92;;;;;;;8.35;100.00;98596.88;5045120;28;20040;-76
2022/12/24 05:27:50;;;;;;;16.75;2.55;;;;;;;8.25;100.00;98600.94;5024669;28;20123;-62
2022/12/24 05:30:16;;;;;;;21.45;3.00;;;;;;;8.27;100.00;98604.28;5021195;28;20099;-62
2022/12/24 05:32:41;;;;;;;34.47;2.75;;;;;;;8.24;100.00;98600.13;5028895;28;20462;-62
2022/12/24 05:35:07;;;;;;;14.30;3.17;;;;;;;8.19;100.00;98589.09;5028033;28;20029;-63
2022/12/24 05:37:32;;;;;;;21.75;2.72;;;;;;;8.17;100.00;98598.38;5022831;28;20041;-63
2022/12/24 05:39:57;;;;;;;15.55;2.67;;;;;;;8.10;100.00;98599.16;5015838;28;20052;-62
2022/12/24 05:42:23;;;;;;;20.25;3.38;;;;;;;8.04;100.00;98602.63;5024906;28;20394;-62
2022/12/24 05:44:48;;;;;;;16.52;2.67;;;;;;;8.03;100.00;98619.81;5021464;28;20026;-63
2022/12/24 05:47:14;;;;;;;17.75;2.88;;;;;;;8.00;100.00;98608.59;5019535;28;20060;-62
2022/12/24 05:49:39;;;;;;;25.95;3.15;;;;;;;8.01;100.00;98604.84;5040154;28;20029;-62
2022/12/24 05:52:04;;;;;;;21.65;3.10;;;;;;;8.05;100.00;98600.78;5025586;28;20053;-62
2022/12/24 05:54:30;;;;;;;25.17;4.45;;;;;;;8.06;100.00;98611.34;5035153;28;20111;-62
2022/12/24 05:56:55;;;;;;;19.67;2.88;;;;;;;8.04;100.00;98616.09;5049650;28;20029;-62
2022/12/24 05:59:20;;;;;;;28.50;3.58;;;;;;;8.05;100.00;98615.06;5023447;28;20064;-62
2022/12/24 06:01:47;;;;;;;16.08;3.38;;;;;;;8.06;100.00;98634.75;5024081;28;20029;-62
2022/12/24 06:04:13;;;;;;;20.77;3.42;;;;;;;8.09;100.00;98635.19;5030744;28;20034;-62
2022/12/24 06:06:38;;;;;;;21.50;4.13;;;;;;;8.10;100.00;98631.50;5034853;28;20033;-62
2022/12/24 06:09:04;;;;;;;25.92;4.30;;;;;;;8.12;100.00;98637.53;5034080;28;20025;-62
2022/12/24 06:11:30;;;;;;;27.00;4.05;;;;;;;8.11;100.00;98638.53;5033110;28;20128;-63
2022/12/24 06:13:56;;;;;;;23.23;3.85;;;;;;;8.12;100.00;98637.53;5033389;28;20026;-62
2022/12/24 06:16:23;;;;;;;21.35;3.78;;;;;;;8.12;100.00;98634.84;5043352;22;20045;-59
2022/12/24 06:18:48;;;;;;;24.90;4.18;;;;;;;8.13;100.00;98630.28;5043903;28;20131;-60
2022/12/24 06:21:15;;;;;;;14.32;3.75;;;;;;;8.07;100.00;98628.38;5052064;28;20504;-60
2022/12/24 06:23:42;;;;;;;18.05;3.42;;;;;;;7.92;100.00;98631.09;5052603;28;20498;-60
2022/12/24 06:26:10;;;;;;;18.38;3.90;;;;;;;7.97;100.00;98636.75;5039240;28;20033;-60
2022/12/24 06:28:37;;;;;;;19.15;2.92;;;;;;;7.96;100.00;98639.63;5043825;28;20029;-59
2022/12/24 06:31:04;;;;;;;18.40;3.38;;;;;;;7.97;100.00;98647.53;5049201;28;20032;-60
2022/12/24 06:33:31;;;;;;;14.98;2.70;;;;;;;7.93;100.00;98654.31;5060082;28;20510;-59
2022/12/24 06:35:57;;;;;;;20.88;2.85;;;;;;;7.89;100.00;98653.84;5051582;28;20418;-59
2022/12/24 06:38:22;;;;;;;20.23;2.78;;;;;;;7.80;100.00;98654.97;5059933;28;20036;-60
2022/12/24 06:40:48;;;;;;;14.05;3.67;;;;;;;7.71;100.00;98664.22;5044552;28;20035;-60
2022/12/24 06:43:14;;;;;;;8.73;2.35;;;;;;;7.52;100.00;98649.47;5048249;28;20028;-60
2022/12/24 06:45:44;;;;;;;21.52;3.25;;;;;;;7.65;100.00;98665.81;5053111;28;20029;-60
2022/12/24 06:48:10;;;;;;;18.20;3.42;;;;;;;7.65;100.00;98671.19;5056903;28;20025;-59
2022/12/24 06:50:36;;;;;;;15.25;3.72;;;;;;;7.69;100.00;98668.94;5043983;28;20021;-60
2022/12/24 06:53:01;;;;;;;22.70;4.68;;;;;;;7.62;100.00;98687.72;5048224;28;20369;-59
2022/12/24 06:55:26;;;;;;;17.70;3.85;;;;;;;7.63;100.00;98689.38;5059393;28;20052;-60
2022/12/24 06:57:52;;;;;;;28.88;4.65;;;;;;;7.59;100.00;98684.56;5049701;28;20060;-60
2022/12/24 07:00:20;;;;;;;24.08;4.90;;;;;;;7.52;100.00;98689.88;5046011;28;20071;-60
2022/12/24 07:02:46;;;;;;;17.67;3.67;;;;;;;7.46;100.00;98695.97;5044454;28;20025;-60
2022/12/24 07:05:12;;;;;;;13.23;5.22;;;;;;;7.43;100.00;98701.72;5041083;28;20028;-60
2022/12/24 07:07:39;;;;;;;22.50;5.13;;;;;;;7.37;100.00;98691.72;5044784;28;20416;-60
2022/12/24 07:10:07;;;;;;;14.30;3.60;;;;;;;7.35;100.00;98697.28;5034252;28;20492;-60
2022/12/24 07:12:32;;;;;;;14.80;2.90;;;;;;;7.34;100.00;98700.16;5042573;28;20025;-60
2022/12/24 07:14:58;;;;;;;17.10;3.35;;;;;;;7.35;100.00;98709.91;5046284;28;20047;-60
2022/12/24 07:17:23;;;;;;;17.05;3.63;;;;;;;7.35;100.00;98712.59;5049360;28;20032;-60
2022/12/24 07:19:49;;;;;;;27.05;3.83;;;;;;;7.41;100.00;98715.41;5039229;28;20029;-60
2022/12/24 07:22:14;;;;;;;19.38;2.90;;;;;;;7.46;100.00;98737.19;5038370;28;20032;-60
2022/12/24 07:24:40;;;;;;;15.95;3.03;;;;;;;7.46;100.00;98722.88;5047575;28;20030;-60
2022/12/24 07:27:05;;;;;;;13.95;3.95;;;;;;;7.49;100.00;98732.44;5050161;28;20052;-60
2022/12/24 07:29:30;;;;;;;20.13;4.50;;;;;;;7.45;100.00;98735.53;5048561;28;20052;-60
2022/12/24 07:31:56;;;;;;;18.65;4.55;;;;;;;7.44;100.00;98735.69;5051356;28;20079;-60
2022/12/24 07:34:21;;;;;;;23.17;4.72;;;;;;;7.45;100.00;98732.00;5039172;28;20415;-60
2022/12/24 07:36:46;;;;;;;17.60;4.57;;;;;;;7.44;100.00;98727.63;5057894;28;20024;-60
2022/12/24 07:39:12;;;;;;;23.65;5.25;;;;;;;7.40;100.00;98726.34;5067003;28;20033;-60
2022/12/24 07:41:37;;;;;;;22.77;5.30;;;;;;;7.41;100.00;98725.31;5043233;28;20027;-60
2022/12/24 07:44:03;;;;;;;23.40;4.80;;;;;;;7.46;100.00;98728.28;5047436;28;20027;-57
2022/12/24 07:46:28;;;;;;;19.45;4.93;;;;;;;7.47;100.00;98719.19;5054077;28;20028;-57
2022/12/24 07:48:54;;;;;;;24.20;5.10;;;;;;;7.47;100.00;98727.28;5053860;28;20029;-57
2022/12/24 07:51:19;;;;;;;23.30;4.60;;;;;;;7.47;100.00;98721.88;5049072;28;20039;-56
2022/12/24 07:53:46;;;;;;;22.02;4.25;;;;;;;7.55;100.00;98724.47;5052505;28;20044;-57
2022/12/24 07:56:14;;;;;;;20.83;3.67;;;;;;;7.64;100.00;98731.44;5044310;28;20013;-57
2022/12/24 07:58:39;;;;;;;20.65;4.38;;;;;;;7.74;100.00;98728.47;5060788;28;20033;-57
2022/12/24 08:01:05;;;;;;;32.45;6.07;;;;;;;7.73;100.00;98716.03;5062113;28;20365;-57
2022/12/24 08:03:30;;;;;;;19.70;5.53;;;;;;;7.85;100.00;98719.06;5049777;28;20074;-57
2022/12/24 08:05:57;;;;;;;22.63;5.60;;;;;;;7.83;100.00;98716.56;5043041;28;20025;-57
2022/12/24 08:08:22;;;;;;;19.13;4.47;;;;;;;7.85;100.00;98719.06;5050929;28;20025;-57
2022/12/24 08:10:48;;;;;;;14.38;3.33;;;;;;;7.92;100.00;98714.59;5055926;28;20079;-57
2022/12/24 08:13:14;;;;;;;11.65;2.40;;;;;;;8.10;100.00;98722.28;5052934;28;20115;-57
2022/12/24 08:15:39;;;;;;;16.00;2.67;;;;;;;8.15;100.00;98727.09;5049951;28;20021;-57
2022/12/24 08:18:05;;;;;;;11.40;2.55;;;;;;;8.25;100.00;98725.78;5043545;28;20033;-56
2022/12/24 08:20:30;;;;;;;16.38;2.78;;;;;;;8.33;100.00;98730.19;5048430;28;20025;-57
2022/12/24 08:22:56;;;;;;;17.63;2.72;;;;;;;8.33;100.00;98732.88;5047809;28;20032;-56
2022/12/24 08:25:21;;;;;;;14.55;3.05;;;;;;;8.25;100.00;98741.09;5048395;28;20025;-57
2022/12/24 08:27:46;;;;;;;15.43;3.13;;;;;;;8.23;100.00;98743.16;5054965;28;20060;-57
2022/12/24 08:30:12;;;;;;;10.73;2.40;;;;;;;8.35;100.00;98738.94;5061185;28;20468;-57
2022/12/24 08:32:39;;;;;;;14.75;2.58;;;;;;;8.60;100.00;98741.31;5039875;28;20025;-57
2022/12/24 08:35:05;;;;;;;11.65;2.85;;;;;;;8.70;100.00;98745.34;5050997;28;20024;-57
2022/12/24 08:37:30;;;;;;;18.65;3.50;;;;;;;8.97;100.00;98740.19;5068334;28;20037;-57
2022/12/24 08:39:55;;;;;;;23.50;4.63;;;;;;;9.06;100.00;98739.00;5050733;28;20461;-57
2022/12/24 08:42:21;;;;;;;19.98;4.55;;;;;;;9.06;100.00;98740.88;5043669;28;20108;-57
2022/12/24 08:44:46;;;;;;;17.73;4.80;;;;;;;9.14;100.00;98748.81;5047140;28;20029;-57
2022/12/24 08:47:12;;;;;;;12.45;3.70;;;;;;;9.28;100.00;98739.81;5045956;28;20052;-57
2022/12/24 08:49:38;;;;;;;10.30;3.33;;;;;;;9.35;100.00;98731.75;5050131;28;20029;-59
2022/12/24 08:52:04;;;;;;;12.05;3.28;;;;;;;9.49;100.00;98738.09;5045466;28;20070;-57
2022/12/24 08:54:29;;;;;;;12.05;3.53;;;;;;;9.50;100.00;98743.28;5049992;28;20511;-57
2022/12/24 08:56:55;;;;;;;16.30;3.33;;;;;;;9.53;100.00;98736.66;5053329;28;20017;-58
2022/12/24 08:59:20;;;;;;;13.30;3.30;;;;;;;9.68;100.00;98740.06;5053116;28;20139;-60
2022/12/24 09:01:46;;;;;;;10.32;2.92;;;;;;;9.83;100.00;98734.56;5050983;28;20017;-59
2022/12/24 09:04:11;;;;;;;9.77;2.97;;;;;;;10.14;100.00;98730.50;5049908;28;20036;-58
2022/12/24 09:06:37;;;;;;;12.18;2.75;;;;;;;10.37;100.00;98738.31;5052121;28;20035;-57
2022/12/24 09:09:03;;;;;;;20.00;2.97;;;;;;;10.53;100.00;98735.22;5033400;28;20025;-58
2022/12/24 09:11:29;;;;;;;14.18;3.50;;;;;;;11.00;100.00;98743.41;5045927;28;20486;-58
2022/12/24 09:13:55;;;;;;;11.27;3.03;;;;;;;11.54;100.00;98729.63;5044124;28;20108;-58
2022/12/24 09:16:21;;;;;;;14.10;2.95;;;;;;;11.93;100.00;98740.63;5065109;28;20518;-58
2022/12/24 09:18:46;;;;;;;9.80;2.67;;;;;;;11.82;100.00;98731.25;5041797;28;20488;-58
2022/12/24 09:21:14;;;;;;;14.98;3.53;;;;;;;11.35;100.00;98742.16;5045639;28;20032;-58
2022/12/24 09:23:41;;;;;;;13.90;3.47;;;;;;;10.96;100.00;98751.13;5035568;28;20026;-57
2022/12/24 09:26:10;;;;;;;11.57;3.17;;;;;;;10.66;100.00;98743.41;5038241;28;20036;-58
2022/12/24 09:28:36;;;;;;;15.70;3.00;;;;;;;11.03;100.00;98764.66;5050452;28;20474;-58
2022/12/24 09:31:03;;;;;;;13.13;2.75;;;;;;;11.41;100.00;98765.69;5060772;28;20025;-58
2022/12/24 09:33:30;;;;;;;14.65;2.70;;;;;;;11.29;100.00;98772.81;5046450;28;20037;-58
2022/12/24 09:35:55;;;;;;;12.68;2.70;;;;;;;11.39;100.00;98772.38;5055321;28;20025;-58
2022/12/24 09:38:21;;;;;;;13.85;3.33;;;;;;;11.27;100.00;98764.06;5069168;28;20346;-58
2022/12/24 09:40:48;;;;;;;10.43;3.03;;;;;;;11.16;100.00;98773.63;5054579;28;20048;-58
2022/12/24 09:43:13;;;;;;;13.05;2.60;;;;;;;11.26;100.00;98761.53;5061692;28;20033;-58
2022/12/24 09:45:44;;;;;;;15.93;3.22;;;;;;;11.24;100.00;98775.31;5040575;28;20052;-58
2022/12/24 09:48:20;;;;;;;10.98;2.45;;;;;;;11.02;100.00;98787.38;5047866;28;20098;-58
2022/12/24 09:50:53;;;;;;;14.25;2.67;;;;;;;11.80;100.00;98780.25;5045160;28;20401;-58
2022/12/24 09:53:29;;;;;;;11.93;2.30;;;;;;;13.91;100.00;98774.78;5047219;28;20032;-58
2022/12/24 09:55:57;;;;;;;14.27;3.05;;;;;;;15.91;100.00;98770.84;5041481;28;20032;-58
2022/12/24 09:58:34;;;;;;;9.80;2.40;;;;;;;16.55;100.00;98772.72;5051477;28;20083;-58
2022/12/24 10:01:00;;;;;;;8.60;2.10;;;;;;;17.71;100.00;98767.69;5051924;28;20354;-58
2022/12/24 10:03:26;;;;;;;13.60;2.40;;;;;;;17.88;100.00;98764.94;5042959;28;20108;-58
2022/12/24 10:06:27;;;;;;;11.60;2.58;;;;;;;18.45;100.00;98763.78;5044604;28;20036;-58
2022/12/24 10:09:05;;;;;;;11.02;2.25;;;;;;;18.71;95.92;98767.63;4990974;28;20398;-58
2022/12/24 10:11:44;;;;;;;10.43;2.60;;;;;;;19.06;88.82;98766.38;5038292;28;20037;-59
2022/12/24 10:14:48;;;;;;;7.22;1.90;;;;;;;16.34;100.00;98761.38;5042836;28;20048;-59
2022/12/24 10:17:28;;;;;;;10.38;1.98;;;;;;;14.85;100.00;98757.06;5008877;28;20131;-59
2022/12/24 10:19:56;;;;;;;9.50;2.08;;;;;;;14.39;100.00;98768.56;5057026;28;20044;-58
2022/12/24 10:22:22;;;;;;;10.35;2.33;;;;;;;15.18;100.00;98760.34;5049586;28;20079;-59
2022/12/24 10:24:56;;;;;;;14.95;2.58;;;;;;;15.61;100.00;98767.38;5043490;28;20052;-59
2022/12/24 10:27:32;;;;;;;8.23;1.88;;;;;;;15.41;100.00;98775.91;5045582;28;20047;-59
2022/12/24 10:30:02;;;;;;;12.27;2.40;;;;;;;14.93;100.00;98772.25;5040955;28;20083;-59
2022/12/24 10:32:31;;;;;;;10.00;1.92;;;;;;;14.66;100.00;98782.69;5040492;28;20017;-58
2022/12/24 10:35:03;;;;;;;12.63;2.65;;;;;;;14.15;100.00;98779.34;5046582;28;20073;-58
2022/12/24 10:37:29;;;;;;;11.82;1.77;;;;;;;13.28;100.00;98784.78;5046278;28;20029;-58
2022/12/24 10:39:57;;;;;;;10.13;1.90;;;;;;;12.90;100.00;98796.50;5049205;28;20056;-58
2022/12/24 10:42:32;;;;;;;14.40;2.75;;;;;;;12.58;100.00;98792.94;5056789;28;20460;-58
2022/12/24 10:45:02;;;;;;;13.93;2.45;;;;;;;12.29;100.00;98799.75;5038153;28;20067;-58
2022/12/24 10:47:30;;;;;;;16.75;2.40;;;;;;;11.97;100.00;98799.66;5063591;28;20056;-58
2022/12/24 10:50:25;;;;;;;15.00;1.98;;;;;;;11.64;100.00;98802.38;5049007;28;20021;-58
2022/12/24 10:52:57;;;;;;;13.65;2.60;;;;;;;11.47;100.00;98807.38;5040498;28;20155;-58
2022/12/24 10:55:23;;;;;;;17.50;2.53;;;;;;;11.37;100.00;98812.38;5044062;28;20036;-57
2022/12/24 10:58:05;;;;;;;9.57;1.95;;;;;;;11.17;100.00;98799.66;5048403;28;20827;-57
2022/12/24 11:00:31;;;;;;;18.13;2.28;;;;;;;11.35;100.00;98806.34;5059921;28;20033;-57
2022/12/24 11:03:15;;;;;;;22.40;2.40;;;;;;;11.12;100.00;98809.47;5036355;28;20059;-57
2022/12/24 11:05:40;;;;;;;10.50;1.83;;;;;;;11.11;100.00;98808.63;5041187;28;20112;-57
2022/12/24 11:08:18;;;;;;;15.57;2.35;;;;;;;11.23;100.00;98806.13;5037082;28;20116;-57
2022/12/24 11:10:58;;;;;;;11.18;1.73;;;;;;;11.18;100.00;98809.44;5047559;28;20112;-57
2022/12/24 11:13:35;;;;;;;11.65;2.00;;;;;;;11.41;100.00;98808.22;5047618;28;20143;-57
2022/12/24 11:16:05;;;;;;;15.18;1.95;;;;;;;11.28;100.00;98813.63;5057224;28;20025;-57
2022/12/24 11:18:35;;;;;;;14.95;2.72;;;;;;;11.29;100.00;98810.72;5047150;28;20036;-57
2022/12/24 11:21:00;;;;;;;;;;;;;;;11.25;100.00;98819.47;5062707;28;20385;-57
2022/12/24 11:23:28;;;;;;;12.95;1.67;;;;;;;11.09;100.00;98826.94;5049951;28;19924;-58
2022/12/24 11:25:55;;;;;;;13.07;1.50;;;;;;;11.27;100.00;98830.94;5046921;28;20693;-58
2022/12/24 11:28:30;;;;;;;16.35;2.15;;;;;;;10.99;100.00;98818.38;5057666;28;20060;-58
2022/12/24 11:30:55;;;;;;;14.05;1.88;;;;;;;10.96;100.00;98827.75;5065690;28;20025;-58
2022/12/24 11:33:21;;;;;;;13.45;2.30;;;;;;;10.90;100.00;98823.16;5047653;28;20135;-58
2022/12/24 11:35:52;;;;;;;10.55;2.30;;;;;;;10.70;100.00;98833.94;5043083;28;20120;-58
2022/12/24 11:38:22;;;;;;;22.02;2.28;;;;;;;10.55;100.00;98841.38;5052793;28;20090;-58
2022/12/24 11:41:11;;;;;;;15.23;2.83;;;;;;;10.36;100.00;98850.25;5052855;28;20056;-58
2022/12/24 11:43:45;;;;;;;;;;;;;;;10.44;100.00;98847.38;5048645;28;21911;-58